sensor_id;sensor_type;location;lat;lon;timestamp;temperature;humidity
33580;DHT22;19909;43.644;-79.438;2023-02-08T00:02:06;16.00;35.70
33580;DHT22;19909;43.644;-79.438;2023-02-08T00:04:32;15.90;35.70
33580;DHT22;19909;43.644;-79.438;2023-02-08T00:06:59;15.90;35.70
33580;DHT22;19909;43.644;-79.438;2023-02-08T00:09:25;15.90;35.70
33580;DHT22;19909;43.644;-79.438;2023-02-08T00:11:51;15.90;35.80
33580;DHT22;19909;43.644;-79.438;2023-02-08T00:14:17;15.90;35.70
33580;DHT22;19909;43.644;-79.438;2023-02-08T00:16:43;15.90;35.80
33580;DHT22;19909;43.644;-79.438;2023-02-08T00:19:09;15.90;35.90
33580;DHT22;19909;43.644;-79.438;2023-02-08T00:21:36;15.90;35.70
33580;DHT22;19909;43.644;-79.438;2023-02-08T00:24:02;15.90;35.80
33580;DHT22;19909;43.644;-79.438;2023-02-08T00:26:29;15.90;35.90
33580;DHT22;19909;43.644;-79.438;2023-02-08T00:28:55;15.90;35.80
33580;DHT22;19909;43.644;-79.438;2023-02-08T00:31:21;15.90;35.80
33580;DHT22;19909;43.644;-79.438;2023-02-08T00:33:47;15.90;35.80
33580;DHT22;19909;43.644;-79.438;2023-02-08T00:36:13;15.90;35.80
33580;DHT22;19909;43.644;-79.438;2023-02-08T00:38:39;15.90;35.80
33580;DHT22;19909;43.644;-79.438;2023-02-08T00:41:06;15.90;35.80
33580;DHT22;19909;43.644;-79.438;2023-02-08T00:43:32;15.90;35.90
33580;DHT22;19909;43.644;-79.438;2023-02-08T00:45:59;15.90;35.80
33580;DHT22;19909;43.644;-79.438;2023-02-08T00:48:26;15.90;35.80
33580;DHT22;19909;43.644;-79.438;2023-02-08T00:51:11;15.90;35.80
33580;DHT22;19909;43.644;-79.438;2023-02-08T00:53:40;15.90;36.40
33580;DHT22;19909;43.644;-79.438;2023-02-08T00:56:08;15.90;35.90
33580;DHT22;19909;43.644;-79.438;2023-02-08T00:58:35;15.90;35.90
33580;DHT22;19909;43.644;-79.438;2023-02-08T01:01:02;15.90;35.90
33580;DHT22;19909;43.644;-79.438;2023-02-08T01:03:28;15.90;35.90
33580;DHT22;19909;43.644;-79.438;2023-02-08T01:06:00;15.90;35.90
33580;DHT22;19909;43.644;-79.438;2023-02-08T01:08:26;15.90;35.90
33580;DHT22;19909;43.644;-79.438;2023-02-08T01:10:53;15.90;35.90
33580;DHT22;19909;43.644;-79.438;2023-02-08T01:13:19;15.90;35.90
33580;DHT22;19909;43.644;-79.438;2023-02-08T01:15:45;16.00;35.90
33580;DHT22;19909;43.644;-79.438;2023-02-08T01:18:11;15.90;35.80
33580;DHT22;19909;43.644;-79.438;2023-02-08T01:20:37;16.00;35.90
33580;DHT22;19909;43.644;-79.438;2023-02-08T01:23:04;15.90;35.90
33580;DHT22;19909;43.644;-79.438;2023-02-08T01:25:30;15.90;35.90
33580;DHT22;19909;43.644;-79.438;2023-02-08T01:27:57;16.00;36.00
33580;DHT22;19909;43.644;-79.438;2023-02-08T01:30:23;16.00;35.90
33580;DHT22;19909;43.644;-79.438;2023-02-08T01:32:50;15.90;35.90
33580;DHT22;19909;43.644;-79.438;2023-02-08T01:35:16;15.90;35.90
33580;DHT22;19909;43.644;-79.438;2023-02-08T01:37:42;15.90;36.00
33580;DHT22;19909;43.644;-79.438;2023-02-08T01:40:09;16.00;36.00
33580;DHT22;19909;43.644;-79.438;2023-02-08T01:42:36;15.90;36.00
33580;DHT22;19909;43.644;-79.438;2023-02-08T01:47:42;16.00;36.00
33580;DHT22;19909;43.644;-79.438;2023-02-08T01:50:10;16.00;36.00
33580;DHT22;19909;43.644;-79.438;2023-02-08T01:52:38;16.00;36.00
33580;DHT22;19909;43.644;-79.438;2023-02-08T01:55:23;16.00;36.00
33580;DHT22;19909;43.644;-79.438;2023-02-08T01:57:54;16.00;36.10
33580;DHT22;19909;43.644;-79.438;2023-02-08T02:00:21;16.00;36.00
33580;DHT22;19909;43.644;-79.438;2023-02-08T02:02:50;15.90;36.00
33580;DHT22;19909;43.644;-79.438;2023-02-08T02:05:21;15.90;35.90
33580;DHT22;19909;43.644;-79.438;2023-02-08T02:07:49;15.90;35.90
33580;DHT22;19909;43.644;-79.438;2023-02-08T02:10:40;15.90;36.00
33580;DHT22;19909;43.644;-79.438;2023-02-08T02:13:19;15.90;36.00
33580;DHT22;19909;43.644;-79.438;2023-02-08T02:15:46;16.00;36.10
33580;DHT22;19909;43.644;-79.438;2023-02-08T02:18:27;16.00;36.10
33580;DHT22;19909;43.644;-79.438;2023-02-08T02:21:16;16.00;36.00
33580;DHT22;19909;43.644;-79.438;2023-02-08T02:24:13;16.00;36.10
33580;DHT22;19909;43.644;-79.438;2023-02-08T02:40:49;15.90;36.10
33580;DHT22;19909;43.644;-79.438;2023-02-08T02:43:22;15.90;36.20
33580;DHT22;19909;43.644;-79.438;2023-02-08T02:46:23;15.90;36.20
33580;DHT22;19909;43.644;-79.438;2023-02-08T02:49:01;15.90;36.20
33580;DHT22;19909;43.644;-79.438;2023-02-08T02:54:20;15.90;36.20
33580;DHT22;19909;43.644;-79.438;2023-02-08T02:56:50;15.90;36.20
33580;DHT22;19909;43.644;-79.438;2023-02-08T02:59:18;15.90;36.20
33580;DHT22;19909;43.644;-79.438;2023-02-08T03:01:46;15.90;36.30
33580;DHT22;19909;43.644;-79.438;2023-02-08T03:07:22;16.00;36.20
33580;DHT22;19909;43.644;-79.438;2023-02-08T03:16:16;15.90;36.20
33580;DHT22;19909;43.644;-79.438;2023-02-08T03:19:15;15.90;36.30
33580;DHT22;19909;43.644;-79.438;2023-02-08T03:21:57;15.90;36.30
33580;DHT22;19909;43.644;-79.438;2023-02-08T03:24:32;15.90;36.30
33580;DHT22;19909;43.644;-79.438;2023-02-08T03:27:08;15.90;36.30
33580;DHT22;19909;43.644;-79.438;2023-02-08T03:29:54;15.90;36.30
33580;DHT22;19909;43.644;-79.438;2023-02-08T03:32:58;15.90;36.30
33580;DHT22;19909;43.644;-79.438;2023-02-08T03:35:39;15.90;36.40
33580;DHT22;19909;43.644;-79.438;2023-02-08T03:40:41;15.90;36.40
33580;DHT22;19909;43.644;-79.438;2023-02-08T03:43:19;15.90;36.90
33580;DHT22;19909;43.644;-79.438;2023-02-08T03:45:54;15.90;36.30
33580;DHT22;19909;43.644;-79.438;2023-02-08T03:48:23;15.90;36.40
33580;DHT22;19909;43.644;-79.438;2023-02-08T03:50:52;15.90;36.40
33580;DHT22;19909;43.644;-79.438;2023-02-08T03:53:21;15.90;36.50
33580;DHT22;19909;43.644;-79.438;2023-02-08T03:55:52;15.90;36.40
33580;DHT22;19909;43.644;-79.438;2023-02-08T03:58:51;15.90;36.40
33580;DHT22;19909;43.644;-79.438;2023-02-08T04:01:35;15.90;36.30
33580;DHT22;19909;43.644;-79.438;2023-02-08T04:04:03;15.90;36.40
33580;DHT22;19909;43.644;-79.438;2023-02-08T04:06:29;15.90;36.40
33580;DHT22;19909;43.644;-79.438;2023-02-08T04:08:56;15.90;36.40
33580;DHT22;19909;43.644;-79.438;2023-02-08T04:11:22;15.90;36.40
33580;DHT22;19909;43.644;-79.438;2023-02-08T04:13:48;15.90;36.40
33580;DHT22;19909;43.644;-79.438;2023-02-08T04:16:15;16.00;36.40
33580;DHT22;19909;43.644;-79.438;2023-02-08T04:18:41;16.00;36.40
33580;DHT22;19909;43.644;-79.438;2023-02-08T04:21:08;16.00;36.50
33580;DHT22;19909;43.644;-79.438;2023-02-08T04:23:34;16.00;36.50
33580;DHT22;19909;43.644;-79.438;2023-02-08T04:26:00;15.90;36.50
33580;DHT22;19909;43.644;-79.438;2023-02-08T04:28:26;15.90;36.40
33580;DHT22;19909;43.644;-79.438;2023-02-08T04:30:54;15.90;36.40
33580;DHT22;19909;43.644;-79.438;2023-02-08T04:33:21;16.00;36.50
33580;DHT22;19909;43.644;-79.438;2023-02-08T04:35:48;16.00;36.50
33580;DHT22;19909;43.644;-79.438;2023-02-08T04:38:14;15.90;36.40
33580;DHT22;19909;43.644;-79.438;2023-02-08T04:40:40;15.90;36.50
33580;DHT22;19909;43.644;-79.438;2023-02-08T04:43:06;15.90;36.40
33580;DHT22;19909;43.644;-79.438;2023-02-08T04:45:33;16.00;36.50
33580;DHT22;19909;43.644;-79.438;2023-02-08T04:48:02;16.00;36.50
33580;DHT22;19909;43.644;-79.438;2023-02-08T04:50:28;16.00;36.50
33580;DHT22;19909;43.644;-79.438;2023-02-08T04:52:55;16.00;36.40
33580;DHT22;19909;43.644;-79.438;2023-02-08T04:55:21;15.90;36.40
33580;DHT22;19909;43.644;-79.438;2023-02-08T04:57:47;15.90;36.40
33580;DHT22;19909;43.644;-79.438;2023-02-08T05:00:13;16.00;36.50
33580;DHT22;19909;43.644;-79.438;2023-02-08T05:02:40;16.00;36.50
33580;DHT22;19909;43.644;-79.438;2023-02-08T05:05:06;16.00;36.40
33580;DHT22;19909;43.644;-79.438;2023-02-08T05:07:33;16.00;36.40
33580;DHT22;19909;43.644;-79.438;2023-02-08T05:09:59;16.00;36.40
33580;DHT22;19909;43.644;-79.438;2023-02-08T05:12:25;16.00;36.50
33580;DHT22;19909;43.644;-79.438;2023-02-08T05:14:51;16.00;36.50
33580;DHT22;19909;43.644;-79.438;2023-02-08T05:17:17;16.00;36.40
33580;DHT22;19909;43.644;-79.438;2023-02-08T05:19:44;16.00;36.40
33580;DHT22;19909;43.644;-79.438;2023-02-08T05:22:10;16.00;36.40
33580;DHT22;19909;43.644;-79.438;2023-02-08T05:24:36;16.00;36.40
33580;DHT22;19909;43.644;-79.438;2023-02-08T05:27:02;16.00;36.50
33580;DHT22;19909;43.644;-79.438;2023-02-08T05:29:29;16.00;36.50
33580;DHT22;19909;43.644;-79.438;2023-02-08T05:31:55;16.00;36.50
33580;DHT22;19909;43.644;-79.438;2023-02-08T05:34:21;16.00;36.40
33580;DHT22;19909;43.644;-79.438;2023-02-08T05:36:47;16.00;36.40
33580;DHT22;19909;43.644;-79.438;2023-02-08T05:39:13;16.00;36.50
33580;DHT22;19909;43.644;-79.438;2023-02-08T05:41:40;16.00;36.50
33580;DHT22;19909;43.644;-79.438;2023-02-08T05:44:06;16.00;36.50
33580;DHT22;19909;43.644;-79.438;2023-02-08T05:46:32;16.00;36.50
33580;DHT22;19909;43.644;-79.438;2023-02-08T05:48:59;16.00;36.50
33580;DHT22;19909;43.644;-79.438;2023-02-08T05:51:25;16.00;36.50
33580;DHT22;19909;43.644;-79.438;2023-02-08T05:53:51;16.00;36.50
33580;DHT22;19909;43.644;-79.438;2023-02-08T05:56:17;16.00;36.50
33580;DHT22;19909;43.644;-79.438;2023-02-08T05:58:44;16.00;36.50
33580;DHT22;19909;43.644;-79.438;2023-02-08T06:01:11;16.00;36.50
33580;DHT22;19909;43.644;-79.438;2023-02-08T06:03:38;16.00;36.50
33580;DHT22;19909;43.644;-79.438;2023-02-08T06:06:05;16.00;36.50
33580;DHT22;19909;43.644;-79.438;2023-02-08T06:08:32;16.00;36.50
33580;DHT22;19909;43.644;-79.438;2023-02-08T06:10:58;16.00;36.60
33580;DHT22;19909;43.644;-79.438;2023-02-08T06:13:24;15.90;36.50
33580;DHT22;19909;43.644;-79.438;2023-02-08T06:15:51;15.90;36.50
33580;DHT22;19909;43.644;-79.438;2023-02-08T06:18:17;16.00;36.50
33580;DHT22;19909;43.644;-79.438;2023-02-08T06:20:44;16.00;36.50
33580;DHT22;19909;43.644;-79.438;2023-02-08T06:23:10;16.00;36.60
33580;DHT22;19909;43.644;-79.438;2023-02-08T06:25:36;16.00;36.50
33580;DHT22;19909;43.644;-79.438;2023-02-08T06:28:03;16.00;36.60
33580;DHT22;19909;43.644;-79.438;2023-02-08T06:30:29;16.00;36.50
33580;DHT22;19909;43.644;-79.438;2023-02-08T06:32:55;16.00;36.50
33580;DHT22;19909;43.644;-79.438;2023-02-08T06:35:22;16.00;36.60
33580;DHT22;19909;43.644;-79.438;2023-02-08T06:37:48;16.00;36.60
33580;DHT22;19909;43.644;-79.438;2023-02-08T06:40:14;16.00;36.60
33580;DHT22;19909;43.644;-79.438;2023-02-08T06:42:40;16.00;36.60
33580;DHT22;19909;43.644;-79.438;2023-02-08T06:45:08;16.00;36.50
33580;DHT22;19909;43.644;-79.438;2023-02-08T06:47:34;16.00;36.60
33580;DHT22;19909;43.644;-79.438;2023-02-08T06:50:00;16.00;36.60
33580;DHT22;19909;43.644;-79.438;2023-02-08T06:52:26;16.00;36.60
33580;DHT22;19909;43.644;-79.438;2023-02-08T06:54:52;16.00;36.60
33580;DHT22;19909;43.644;-79.438;2023-02-08T06:57:18;16.00;36.60
33580;DHT22;19909;43.644;-79.438;2023-02-08T06:59:45;16.00;36.60
33580;DHT22;19909;43.644;-79.438;2023-02-08T07:02:12;16.00;37.20
33580;DHT22;19909;43.644;-79.438;2023-02-08T07:04:39;16.00;36.60
33580;DHT22;19909;43.644;-79.438;2023-02-08T07:07:05;16.00;36.60
33580;DHT22;19909;43.644;-79.438;2023-02-08T07:09:35;16.00;36.50
33580;DHT22;19909;43.644;-79.438;2023-02-08T07:12:02;16.00;36.60
33580;DHT22;19909;43.644;-79.438;2023-02-08T07:14:34;16.00;36.60
33580;DHT22;19909;43.644;-79.438;2023-02-08T07:17:01;16.00;36.60
33580;DHT22;19909;43.644;-79.438;2023-02-08T07:19:28;16.00;36.60
33580;DHT22;19909;43.644;-79.438;2023-02-08T07:21:55;16.00;36.60
33580;DHT22;19909;43.644;-79.438;2023-02-08T07:24:22;16.00;36.60
33580;DHT22;19909;43.644;-79.438;2023-02-08T07:26:48;16.00;36.70
33580;DHT22;19909;43.644;-79.438;2023-02-08T07:29:15;16.00;36.60
33580;DHT22;19909;43.644;-79.438;2023-02-08T07:31:41;16.00;36.60
33580;DHT22;19909;43.644;-79.438;2023-02-08T07:34:07;16.00;36.50
33580;DHT22;19909;43.644;-79.438;2023-02-08T07:36:33;16.00;36.60
33580;DHT22;19909;43.644;-79.438;2023-02-08T07:39:00;16.00;36.60
33580;DHT22;19909;43.644;-79.438;2023-02-08T07:41:27;16.00;36.60
33580;DHT22;19909;43.644;-79.438;2023-02-08T07:43:53;16.00;36.60
33580;DHT22;19909;43.644;-79.438;2023-02-08T07:46:20;16.00;36.60
33580;DHT22;19909;43.644;-79.438;2023-02-08T07:48:47;16.00;36.60
33580;DHT22;19909;43.644;-79.438;2023-02-08T07:51:17;16.00;36.60
33580;DHT22;19909;43.644;-79.438;2023-02-08T07:53:44;16.00;36.60
33580;DHT22;19909;43.644;-79.438;2023-02-08T07:56:10;16.00;36.60
33580;DHT22;19909;43.644;-79.438;2023-02-08T07:58:37;16.00;36.60
33580;DHT22;19909;43.644;-79.438;2023-02-08T08:01:03;16.00;36.60
33580;DHT22;19909;43.644;-79.438;2023-02-08T08:03:29;16.00;36.60
33580;DHT22;19909;43.644;-79.438;2023-02-08T08:05:56;16.00;36.60
33580;DHT22;19909;43.644;-79.438;2023-02-08T08:08:22;16.00;36.60
33580;DHT22;19909;43.644;-79.438;2023-02-08T08:10:48;16.00;36.70
33580;DHT22;19909;43.644;-79.438;2023-02-08T08:13:15;16.00;36.60
33580;DHT22;19909;43.644;-79.438;2023-02-08T08:15:41;16.00;36.60
33580;DHT22;19909;43.644;-79.438;2023-02-08T08:18:08;16.00;36.60
33580;DHT22;19909;43.644;-79.438;2023-02-08T08:20:35;16.00;36.60
33580;DHT22;19909;43.644;-79.438;2023-02-08T08:23:01;16.00;36.60
33580;DHT22;19909;43.644;-79.438;2023-02-08T08:25:27;16.00;36.60
33580;DHT22;19909;43.644;-79.438;2023-02-08T08:27:53;16.00;36.60
33580;DHT22;19909;43.644;-79.438;2023-02-08T08:30:20;16.00;36.60
33580;DHT22;19909;43.644;-79.438;2023-02-08T08:32:46;16.00;36.60
33580;DHT22;19909;43.644;-79.438;2023-02-08T08:35:13;16.00;36.60
33580;DHT22;19909;43.644;-79.438;2023-02-08T08:37:39;16.00;36.60
33580;DHT22;19909;43.644;-79.438;2023-02-08T08:40:06;16.00;36.60
33580;DHT22;19909;43.644;-79.438;2023-02-08T08:42:33;16.00;36.60
33580;DHT22;19909;43.644;-79.438;2023-02-08T08:45:02;16.00;36.60
33580;DHT22;19909;43.644;-79.438;2023-02-08T08:47:28;16.00;36.60
33580;DHT22;19909;43.644;-79.438;2023-02-08T08:49:54;16.00;36.60
33580;DHT22;19909;43.644;-79.438;2023-02-08T08:52:20;16.00;36.60
33580;DHT22;19909;43.644;-79.438;2023-02-08T08:54:46;16.00;36.60
33580;DHT22;19909;43.644;-79.438;2023-02-08T08:57:13;16.00;36.60
33580;DHT22;19909;43.644;-79.438;2023-02-08T08:59:39;16.00;36.60
33580;DHT22;19909;43.644;-79.438;2023-02-08T09:02:05;16.00;36.60
33580;DHT22;19909;43.644;-79.438;2023-02-08T09:04:32;16.00;36.60
33580;DHT22;19909;43.644;-79.438;2023-02-08T09:06:58;16.00;36.70
33580;DHT22;19909;43.644;-79.438;2023-02-08T09:09:25;16.00;36.60
33580;DHT22;19909;43.644;-79.438;2023-02-08T09:11:51;16.00;36.60
33580;DHT22;19909;43.644;-79.438;2023-02-08T09:14:17;16.00;36.60
33580;DHT22;19909;43.644;-79.438;2023-02-08T09:16:43;15.90;36.60
33580;DHT22;19909;43.644;-79.438;2023-02-08T09:19:13;16.00;37.30
33580;DHT22;19909;43.644;-79.438;2023-02-08T09:21:40;16.00;36.70
33580;DHT22;19909;43.644;-79.438;2023-02-08T09:24:07;16.00;36.70
33580;DHT22;19909;43.644;-79.438;2023-02-08T09:26:33;15.90;36.60
33580;DHT22;19909;43.644;-79.438;2023-02-08T09:29:00;16.00;36.70
33580;DHT22;19909;43.644;-79.438;2023-02-08T09:31:28;16.00;36.70
33580;DHT22;19909;43.644;-79.438;2023-02-08T09:33:57;16.00;36.70
33580;DHT22;19909;43.644;-79.438;2023-02-08T09:36:27;16.00;36.70
33580;DHT22;19909;43.644;-79.438;2023-02-08T09:38:56;16.00;36.70
33580;DHT22;19909;43.644;-79.438;2023-02-08T09:44:40;15.90;36.60
33580;DHT22;19909;43.644;-79.438;2023-02-08T09:52:32;16.00;36.80
33580;DHT22;19909;43.644;-79.438;2023-02-08T09:55:04;15.90;36.70
33580;DHT22;19909;43.644;-79.438;2023-02-08T09:57:36;16.00;36.80
33580;DHT22;19909;43.644;-79.438;2023-02-08T10:00:14;15.90;36.70
33580;DHT22;19909;43.644;-79.438;2023-02-08T10:02:43;16.00;36.70
33580;DHT22;19909;43.644;-79.438;2023-02-08T10:05:15;16.00;36.70
33580;DHT22;19909;43.644;-79.438;2023-02-08T10:07:44;16.00;36.80
33580;DHT22;19909;43.644;-79.438;2023-02-08T10:15:47;16.00;36.70
33580;DHT22;19909;43.644;-79.438;2023-02-08T10:18:36;16.00;36.70
33580;DHT22;19909;43.644;-79.438;2023-02-08T10:21:25;16.00;36.70
33580;DHT22;19909;43.644;-79.438;2023-02-08T10:26:47;15.90;36.70
33580;DHT22;19909;43.644;-79.438;2023-02-08T10:37:16;16.00;36.80
33580;DHT22;19909;43.644;-79.438;2023-02-08T10:39:44;16.00;36.70
33580;DHT22;19909;43.644;-79.438;2023-02-08T10:42:17;15.90;36.70
33580;DHT22;19909;43.644;-79.438;2023-02-08T10:47:49;16.00;36.80
33580;DHT22;19909;43.644;-79.438;2023-02-08T10:52:54;16.00;36.90
33580;DHT22;19909;43.644;-79.438;2023-02-08T10:55:21;16.00;36.80
33580;DHT22;19909;43.644;-79.438;2023-02-08T10:57:49;16.00;36.80
33580;DHT22;19909;43.644;-79.438;2023-02-08T11:00:21;16.00;36.70
33580;DHT22;19909;43.644;-79.438;2023-02-08T11:02:50;16.00;36.70
33580;DHT22;19909;43.644;-79.438;2023-02-08T11:05:32;16.00;36.70
33580;DHT22;19909;43.644;-79.438;2023-02-08T11:08:07;16.00;36.80
33580;DHT22;19909;43.644;-79.438;2023-02-08T11:10:34;16.00;36.80
33580;DHT22;19909;43.644;-79.438;2023-02-08T11:13:32;16.00;36.80
33580;DHT22;19909;43.644;-79.438;2023-02-08T11:16:00;15.90;36.60
33580;DHT22;19909;43.644;-79.438;2023-02-08T11:18:30;16.00;36.70
33580;DHT22;19909;43.644;-79.438;2023-02-08T11:21:06;16.00;36.70
33580;DHT22;19909;43.644;-79.438;2023-02-08T11:23:39;16.00;36.70
33580;DHT22;19909;43.644;-79.438;2023-02-08T11:29:15;16.00;36.70
33580;DHT22;19909;43.644;-79.438;2023-02-08T11:31:56;15.90;36.70
33580;DHT22;19909;43.644;-79.438;2023-02-08T11:34:34;16.00;36.70
33580;DHT22;19909;43.644;-79.438;2023-02-08T11:37:03;16.00;36.70
33580;DHT22;19909;43.644;-79.438;2023-02-08T11:39:43;16.00;36.70
33580;DHT22;19909;43.644;-79.438;2023-02-08T11:42:21;16.00;36.90
33580;DHT22;19909;43.644;-79.438;2023-02-08T11:44:49;15.90;36.80
33580;DHT22;19909;43.644;-79.438;2023-02-08T11:47:21;16.00;36.70
33580;DHT22;19909;43.644;-79.438;2023-02-08T11:49:55;16.00;36.60
33580;DHT22;19909;43.644;-79.438;2023-02-08T11:52:40;16.00;36.60
33580;DHT22;19909;43.644;-79.438;2023-02-08T11:55:21;16.00;36.80
33580;DHT22;19909;43.644;-79.438;2023-02-08T12:00:40;16.00;37.40
33580;DHT22;19909;43.644;-79.438;2023-02-08T12:03:15;16.00;36.70
33580;DHT22;19909;43.644;-79.438;2023-02-08T12:08:52;16.00;36.70
33580;DHT22;19909;43.644;-79.438;2023-02-08T12:11:46;16.00;36.80
33580;DHT22;19909;43.644;-79.438;2023-02-08T12:22:27;16.00;36.70
33580;DHT22;19909;43.644;-79.438;2023-02-08T12:25:16;16.00;36.80
33580;DHT22;19909;43.644;-79.438;2023-02-08T12:27:55;16.00;36.80
33580;DHT22;19909;43.644;-79.438;2023-02-08T12:30:49;16.00;36.80
33580;DHT22;19909;43.644;-79.438;2023-02-08T12:43:07;16.00;36.90
33580;DHT22;19909;43.644;-79.438;2023-02-08T12:54:30;16.00;36.80
33580;DHT22;19909;43.644;-79.438;2023-02-08T12:56:58;16.00;36.80
33580;DHT22;19909;43.644;-79.438;2023-02-08T12:59:41;16.00;36.80
33580;DHT22;19909;43.644;-79.438;2023-02-08T13:05:37;16.00;36.80
33580;DHT22;19909;43.644;-79.438;2023-02-08T13:08:29;16.00;36.80
33580;DHT22;19909;43.644;-79.438;2023-02-08T13:11:02;16.00;36.80
33580;DHT22;19909;43.644;-79.438;2023-02-08T13:13:34;16.00;36.80
33580;DHT22;19909;43.644;-79.438;2023-02-08T13:19:06;16.00;36.80
33580;DHT22;19909;43.644;-79.438;2023-02-08T13:21:35;16.00;37.30
33580;DHT22;19909;43.644;-79.438;2023-02-08T13:24:24;16.00;36.90
33580;DHT22;19909;43.644;-79.438;2023-02-08T13:26:51;16.00;36.90
33580;DHT22;19909;43.644;-79.438;2023-02-08T13:29:18;16.00;36.80
33580;DHT22;19909;43.644;-79.438;2023-02-08T13:31:59;16.00;36.80
33580;DHT22;19909;43.644;-79.438;2023-02-08T13:34:41;16.00;36.80
33580;DHT22;19909;43.644;-79.438;2023-02-08T13:37:24;16.00;36.80
33580;DHT22;19909;43.644;-79.438;2023-02-08T13:42:40;16.00;36.80
33580;DHT22;19909;43.644;-79.438;2023-02-08T13:45:09;16.00;36.80
33580;DHT22;19909;43.644;-79.438;2023-02-08T13:47:48;16.00;36.80
33580;DHT22;19909;43.644;-79.438;2023-02-08T13:50:48;16.00;36.80
33580;DHT22;19909;43.644;-79.438;2023-02-08T13:53:16;16.00;36.80
33580;DHT22;19909;43.644;-79.438;2023-02-08T13:55:53;16.00;36.90
33580;DHT22;19909;43.644;-79.438;2023-02-08T14:01:20;16.00;36.80
33580;DHT22;19909;43.644;-79.438;2023-02-08T14:04:25;16.00;36.90
33580;DHT22;19909;43.644;-79.438;2023-02-08T14:06:49;16.00;36.90
33580;DHT22;19909;43.644;-79.438;2023-02-08T14:09:28;16.00;36.90
33580;DHT22;19909;43.644;-79.438;2023-02-08T14:12:05;16.00;37.00
33580;DHT22;19909;43.644;-79.438;2023-02-08T14:14:36;16.00;36.90
33580;DHT22;19909;43.644;-79.438;2023-02-08T14:19:34;16.00;36.90
33580;DHT22;19909;43.644;-79.438;2023-02-08T14:24:41;16.00;36.90
33580;DHT22;19909;43.644;-79.438;2023-02-08T14:35:40;16.00;36.90
33580;DHT22;19909;43.644;-79.438;2023-02-08T14:40:54;16.00;36.90
33580;DHT22;19909;43.644;-79.438;2023-02-08T14:43:36;16.00;36.90
33580;DHT22;19909;43.644;-79.438;2023-02-08T14:49:12;16.00;36.80
33580;DHT22;19909;43.644;-79.438;2023-02-08T14:51:50;16.00;36.80
33580;DHT22;19909;43.644;-79.438;2023-02-08T14:54:22;16.00;36.80
33580;DHT22;19909;43.644;-79.438;2023-02-08T14:56:57;16.00;36.90
33580;DHT22;19909;43.644;-79.438;2023-02-08T14:59:27;16.00;36.80
33580;DHT22;19909;43.644;-79.438;2023-02-08T15:01:59;16.00;36.90
33580;DHT22;19909;43.644;-79.438;2023-02-08T15:04:26;16.00;36.80
33580;DHT22;19909;43.644;-79.438;2023-02-08T15:07:07;16.00;36.80
33580;DHT22;19909;43.644;-79.438;2023-02-08T15:09:42;16.00;36.80
33580;DHT22;19909;43.644;-79.438;2023-02-08T15:12:28;16.00;36.90
33580;DHT22;19909;43.644;-79.438;2023-02-08T15:14:57;16.00;36.80
33580;DHT22;19909;43.644;-79.438;2023-02-08T15:17:39;16.00;36.80
33580;DHT22;19909;43.644;-79.438;2023-02-08T15:20:15;16.00;36.80
33580;DHT22;19909;43.644;-79.438;2023-02-08T15:22:42;16.00;36.80
33580;DHT22;19909;43.644;-79.438;2023-02-08T15:27:51;16.00;36.60
33580;DHT22;19909;43.644;-79.438;2023-02-08T15:30:29;16.00;36.70
33580;DHT22;19909;43.644;-79.438;2023-02-08T15:32:57;16.00;36.60
33580;DHT22;19909;43.644;-79.438;2023-02-08T15:35:24;16.00;36.80
33580;DHT22;19909;43.644;-79.438;2023-02-08T15:37:52;16.00;36.80
33580;DHT22;19909;43.644;-79.438;2023-02-08T15:40:37;16.10;37.40
33580;DHT22;19909;43.644;-79.438;2023-02-08T15:43:11;16.00;36.70
33580;DHT22;19909;43.644;-79.438;2023-02-08T15:45:38;16.00;36.60
33580;DHT22;19909;43.644;-79.438;2023-02-08T15:48:05;16.00;36.70
33580;DHT22;19909;43.644;-79.438;2023-02-08T15:50:32;16.00;36.70
33580;DHT22;19909;43.644;-79.438;2023-02-08T15:53:04;16.00;36.80
33580;DHT22;19909;43.644;-79.438;2023-02-08T15:55:34;16.00;36.90
33580;DHT22;19909;43.644;-79.438;2023-02-08T15:58:08;16.00;36.70
33580;DHT22;19909;43.644;-79.438;2023-02-08T16:00:42;16.00;36.60
33580;DHT22;19909;43.644;-79.438;2023-02-08T16:03:19;16.00;36.70
33580;DHT22;19909;43.644;-79.438;2023-02-08T16:05:59;16.00;36.70
33580;DHT22;19909;43.644;-79.438;2023-02-08T16:08:28;16.00;36.70
33580;DHT22;19909;43.644;-79.438;2023-02-08T16:11:28;16.00;36.80
33580;DHT22;19909;43.644;-79.438;2023-02-08T16:13:57;16.00;36.60
33580;DHT22;19909;43.644;-79.438;2023-02-08T16:19:04;16.00;36.70
33580;DHT22;19909;43.644;-79.438;2023-02-08T16:21:37;16.00;36.70
33580;DHT22;19909;43.644;-79.438;2023-02-08T16:26:42;16.00;36.80
33580;DHT22;19909;43.644;-79.438;2023-02-08T16:29:30;16.00;36.80
33580;DHT22;19909;43.644;-79.438;2023-02-08T16:32:06;16.00;36.70
33580;DHT22;19909;43.644;-79.438;2023-02-08T16:34:35;16.00;36.80
33580;DHT22;19909;43.644;-79.438;2023-02-08T16:37:06;16.00;36.80
33580;DHT22;19909;43.644;-79.438;2023-02-08T16:39:50;16.00;36.80
33580;DHT22;19909;43.644;-79.438;2023-02-08T16:45:15;16.00;36.70
33580;DHT22;19909;43.644;-79.438;2023-02-08T16:47:48;16.00;36.80
33580;DHT22;19909;43.644;-79.438;2023-02-08T16:50:25;16.00;36.80
33580;DHT22;19909;43.644;-79.438;2023-02-08T16:52:54;16.00;36.70
33580;DHT22;19909;43.644;-79.438;2023-02-08T16:55:25;16.00;36.90
33580;DHT22;19909;43.644;-79.438;2023-02-08T16:57:54;16.00;36.60
33580;DHT22;19909;43.644;-79.438;2023-02-08T17:00:34;16.10;36.70
33580;DHT22;19909;43.644;-79.438;2023-02-08T17:03:01;16.10;36.80
33580;DHT22;19909;43.644;-79.438;2023-02-08T17:05:30;16.10;36.90
33580;DHT22;19909;43.644;-79.438;2023-02-08T17:07:57;16.10;36.90
33580;DHT22;19909;43.644;-79.438;2023-02-08T17:10:29;16.10;36.90
33580;DHT22;19909;43.644;-79.438;2023-02-08T17:12:56;16.10;36.80
33580;DHT22;19909;43.644;-79.438;2023-02-08T17:15:23;16.10;36.80
33580;DHT22;19909;43.644;-79.438;2023-02-08T17:17:50;16.10;36.90
33580;DHT22;19909;43.644;-79.438;2023-02-08T17:20:22;16.10;36.90
33580;DHT22;19909;43.644;-79.438;2023-02-08T17:22:50;16.10;36.90
33580;DHT22;19909;43.644;-79.438;2023-02-08T17:25:17;16.10;36.90
33580;DHT22;19909;43.644;-79.438;2023-02-08T17:27:55;16.10;36.80
33580;DHT22;19909;43.644;-79.438;2023-02-08T17:32:55;16.10;36.80
33580;DHT22;19909;43.644;-79.438;2023-02-08T17:35:27;16.10;36.90
33580;DHT22;19909;43.644;-79.438;2023-02-08T17:37:54;16.10;36.90
33580;DHT22;19909;43.644;-79.438;2023-02-08T17:40:25;16.10;37.00
33580;DHT22;19909;43.644;-79.438;2023-02-08T17:42:52;16.00;36.90
33580;DHT22;19909;43.644;-79.438;2023-02-08T17:45:19;16.10;37.00
33580;DHT22;19909;43.644;-79.438;2023-02-08T17:47:46;16.10;36.90